Página principal
METAR-TAF:

METAR-TAF

Aeroportos :

Fort-de-France, Martinica

Aeroporto Internacional Aimé Césaire

latitude: 14-36N, longitude: 061-00W, altura: 5 m

Observação actual do tempo

O boletim foi feito há 23 minutos, às 08:30 UTC
Vento 4 kt de es-nordeste, variando entre nor-nordeste e este
Temperatura 24°C
Humidade 83%
Pressão 1015 hPa
Visibilidade 10 km ou mais

METAR: TFFF 200830Z AUTO 06004KT 030V100 9999 FEW025/// SCT060/// BKN088/// 24/21 Q1015 TEMPO 4000 SHRA BKN018TCU

Hora: 04:53 (08:53 UTC)

Previsão

O boletim foi feito há 3 horas e 53 minutos, às 05:00 UTC
Previsão válida de 20 às 06 UTC a 21 às 06 UTC
Vento 10 kt de este
Visibilidade 10 km ou mais
Nuvens dispersasa uma altura de 2300 ft
Probabilidade 30% :
Temporariamente
de 20 às 06 UTC a 20 às 24 UTC
Visibilidade: 4000 m
Nuvens fragmentadasa uma altura de 1800 ft, Cumulus congestus.
aguaceiros de chuva

TAF: TFFF 200500Z 2006/2106 09010KT 9999 SCT023 PROB30 TEMPO 2006/2024 4000 SHRA BKN018TCU

Observações e previsões do tempo de mais de 4000 aeroportos (mensagens METAR e TAF).

As estações disponíveis são os pontos amarelos e vermelhos sobre o mapa.

Mova o rato sobre o mapa para ver o nome da estação.

Depois clique no ponto para visualizar as observações e previsões meteorológicas.

Para alterar o mapa : clique nos botões verdes com uma cruz preta para aumentar o zoom; no botão verde com uma pitada de zoom; ou nas setas verdes para mapas adjacentes.


METAR-TAF: